sensor_id;sensor_type;location;lat;lon;timestamp;temperature;humidity
67555;HTU21D;54385;53.516;49.456;2023-11-21T00:01:11;19.72;27.24
67555;HTU21D;54385;53.516;49.456;2023-11-21T00:03:38;19.73;27.26
67555;HTU21D;54385;53.516;49.456;2023-11-21T00:06:05;19.72;27.24
67555;HTU21D;54385;53.516;49.456;2023-11-21T00:08:36;19.72;27.24
67555;HTU21D;54385;53.516;49.456;2023-11-21T00:11:03;19.72;27.25
67555;HTU21D;54385;53.516;49.456;2023-11-21T00:13:32;19.72;27.25
67555;HTU21D;54385;53.516;49.456;2023-11-21T00:15:59;19.72;27.26
67555;HTU21D;54385;53.516;49.456;2023-11-21T00:18:26;19.70;27.26
67555;HTU21D;54385;53.516;49.456;2023-11-21T00:20:53;19.69;27.26
67555;HTU21D;54385;53.516;49.456;2023-11-21T00:23:20;19.70;27.26
67555;HTU21D;54385;53.516;49.456;2023-11-21T00:25:47;19.70;27.23
67555;HTU21D;54385;53.516;49.456;2023-11-21T00:28:14;19.73;27.23
67555;HTU21D;54385;53.516;49.456;2023-11-21T00:30:41;19.72;27.23
67555;HTU21D;54385;53.516;49.456;2023-11-21T00:33:08;19.72;27.20
67555;HTU21D;54385;53.516;49.456;2023-11-21T00:35:35;19.71;27.23
67555;HTU21D;54385;53.516;49.456;2023-11-21T00:38:01;19.71;27.23
67555;HTU21D;54385;53.516;49.456;2023-11-21T00:40:29;19.70;27.23
67555;HTU21D;54385;53.516;49.456;2023-11-21T00:42:57;19.71;27.23
67555;HTU21D;54385;53.516;49.456;2023-11-21T00:45:24;19.70;27.23
67555;HTU21D;54385;53.516;49.456;2023-11-21T00:47:50;19.72;27.23
67555;HTU21D;54385;53.516;49.456;2023-11-21T00:50:17;19.70;27.20
67555;HTU21D;54385;53.516;49.456;2023-11-21T00:52:44;19.70;27.23
67555;HTU21D;54385;53.516;49.456;2023-11-21T00:55:10;19.70;27.23
67555;HTU21D;54385;53.516;49.456;2023-11-21T00:57:38;19.70;27.22
67555;HTU21D;54385;53.516;49.456;2023-11-21T01:00:05;19.70;27.20
67555;HTU21D;54385;53.516;49.456;2023-11-21T01:02:43;19.70;27.19
67555;HTU21D;54385;53.516;49.456;2023-11-21T01:05:14;19.71;27.20
67555;HTU21D;54385;53.516;49.456;2023-11-21T01:07:40;19.70;27.20
67555;HTU21D;54385;53.516;49.456;2023-11-21T01:10:07;19.70;27.22
67555;HTU21D;54385;53.516;49.456;2023-11-21T01:12:38;19.70;27.18
67555;HTU21D;54385;53.516;49.456;2023-11-21T01:15:05;19.70;27.19
67555;HTU21D;54385;53.516;49.456;2023-11-21T01:17:38;19.71;27.19
67555;HTU21D;54385;53.516;49.456;2023-11-21T01:20:05;19.71;27.18
67555;HTU21D;54385;53.516;49.456;2023-11-21T01:22:37;19.70;27.19
67555;HTU21D;54385;53.516;49.456;2023-11-21T01:25:04;19.70;27.20
67555;HTU21D;54385;53.516;49.456;2023-11-21T01:27:36;19.69;27.16
67555;HTU21D;54385;53.516;49.456;2023-11-21T01:30:06;19.71;27.16
67555;HTU21D;54385;53.516;49.456;2023-11-21T01:32:33;19.71;27.15
67555;HTU21D;54385;53.516;49.456;2023-11-21T01:35:00;19.71;27.16
67555;HTU21D;54385;53.516;49.456;2023-11-21T01:37:26;19.70;27.18
67555;HTU21D;54385;53.516;49.456;2023-11-21T01:39:54;19.71;27.15
67555;HTU21D;54385;53.516;49.456;2023-11-21T01:42:23;19.71;27.16
67555;HTU21D;54385;53.516;49.456;2023-11-21T01:44:50;19.72;27.14
67555;HTU21D;54385;53.516;49.456;2023-11-21T01:47:19;19.72;27.16
67555;HTU21D;54385;53.516;49.456;2023-11-21T01:49:48;19.72;27.12
67555;HTU21D;54385;53.516;49.456;2023-11-21T01:52:14;19.75;27.12
67555;HTU21D;54385;53.516;49.456;2023-11-21T01:54:41;19.74;27.13
67555;HTU21D;54385;53.516;49.456;2023-11-21T01:57:08;19.73;27.13
67555;HTU21D;54385;53.516;49.456;2023-11-21T01:59:39;19.73;27.12
67555;HTU21D;54385;53.516;49.456;2023-11-21T02:02:06;19.74;27.10
67555;HTU21D;54385;53.516;49.456;2023-11-21T02:04:34;19.74;27.10
67555;HTU21D;54385;53.516;49.456;2023-11-21T02:07:00;19.74;27.11
67555;HTU21D;54385;53.516;49.456;2023-11-21T02:09:27;19.74;27.11
67555;HTU21D;54385;53.516;49.456;2023-11-21T02:11:56;19.74;27.12
67555;HTU21D;54385;53.516;49.456;2023-11-21T02:14:22;19.73;27.11
67555;HTU21D;54385;53.516;49.456;2023-11-21T02:16:50;19.74;27.10
67555;HTU21D;54385;53.516;49.456;2023-11-21T02:19:20;19.74;27.09
67555;HTU21D;54385;53.516;49.456;2023-11-21T02:21:49;19.74;27.07
67555;HTU21D;54385;53.516;49.456;2023-11-21T02:24:16;19.73;27.10
67555;HTU21D;54385;53.516;49.456;2023-11-21T02:26:43;19.74;27.10
67555;HTU21D;54385;53.516;49.456;2023-11-21T02:29:12;19.75;27.08
67555;HTU21D;54385;53.516;49.456;2023-11-21T02:31:39;19.76;27.06
67555;HTU21D;54385;53.516;49.456;2023-11-21T02:34:15;19.76;27.07
67555;HTU21D;54385;53.516;49.456;2023-11-21T02:36:42;19.75;27.06
67555;HTU21D;54385;53.516;49.456;2023-11-21T02:39:09;19.74;27.07
67555;HTU21D;54385;53.516;49.456;2023-11-21T02:41:37;19.76;27.06
67555;HTU21D;54385;53.516;49.456;2023-11-21T02:44:08;19.74;27.06
67555;HTU21D;54385;53.516;49.456;2023-11-21T02:46:35;19.74;27.07
67555;HTU21D;54385;53.516;49.456;2023-11-21T02:49:06;19.76;27.02
67555;HTU21D;54385;53.516;49.456;2023-11-21T02:51:36;19.75;27.02
67555;HTU21D;54385;53.516;49.456;2023-11-21T02:54:05;19.75;27.05
67555;HTU21D;54385;53.516;49.456;2023-11-21T02:56:34;19.75;27.04
67555;HTU21D;54385;53.516;49.456;2023-11-21T02:59:01;19.76;27.04
67555;HTU21D;54385;53.516;49.456;2023-11-21T03:01:28;19.75;27.04
67555;HTU21D;54385;53.516;49.456;2023-11-21T03:03:57;19.76;27.04
67555;HTU21D;54385;53.516;49.456;2023-11-21T03:06:41;19.76;27.06
67555;HTU21D;54385;53.516;49.456;2023-11-21T03:09:08;19.74;27.06
67555;HTU21D;54385;53.516;49.456;2023-11-21T03:11:35;19.76;27.05
67555;HTU21D;54385;53.516;49.456;2023-11-21T03:14:02;19.76;27.05
67555;HTU21D;54385;53.516;49.456;2023-11-21T03:16:29;19.75;27.12
67555;HTU21D;54385;53.516;49.456;2023-11-21T03:18:55;19.76;27.20
67555;HTU21D;54385;53.516;49.456;2023-11-21T03:21:22;19.77;27.39
67555;HTU21D;54385;53.516;49.456;2023-11-21T03:23:49;19.79;27.55
67555;HTU21D;54385;53.516;49.456;2023-11-21T03:26:16;19.80;27.69
67555;HTU21D;54385;53.516;49.456;2023-11-21T03:28:43;19.79;27.80
67555;HTU21D;54385;53.516;49.456;2023-11-21T03:31:16;19.80;28.00
67555;HTU21D;54385;53.516;49.456;2023-11-21T03:33:45;19.80;27.98
67555;HTU21D;54385;53.516;49.456;2023-11-21T03:36:13;19.80;28.05
67555;HTU21D;54385;53.516;49.456;2023-11-21T03:38:44;19.81;28.13
67555;HTU21D;54385;53.516;49.456;2023-11-21T03:41:11;19.81;28.20
67555;HTU21D;54385;53.516;49.456;2023-11-21T03:43:38;19.81;28.29
67555;HTU21D;54385;53.516;49.456;2023-11-21T03:46:11;19.81;28.49
67555;HTU21D;54385;53.516;49.456;2023-11-21T03:48:39;19.81;28.55
67555;HTU21D;54385;53.516;49.456;2023-11-21T03:51:06;19.83;28.71
67555;HTU21D;54385;53.516;49.456;2023-11-21T03:53:33;19.82;28.87
67555;HTU21D;54385;53.516;49.456;2023-11-21T03:56:02;19.81;29.00
67555;HTU21D;54385;53.516;49.456;2023-11-21T03:58:29;19.83;29.02
67555;HTU21D;54385;53.516;49.456;2023-11-21T04:00:56;19.83;29.10
67555;HTU21D;54385;53.516;49.456;2023-11-21T04:03:22;19.85;29.55
67555;HTU21D;54385;53.516;49.456;2023-11-21T04:05:49;19.86;29.79
67555;HTU21D;54385;53.516;49.456;2023-11-21T04:08:18;19.92;30.35
67555;HTU21D;54385;53.516;49.456;2023-11-21T04:10:45;19.94;30.61
67555;HTU21D;54385;53.516;49.456;2023-11-21T04:13:11;19.97;30.81
67555;HTU21D;54385;53.516;49.456;2023-11-21T04:15:38;19.99;30.92
67555;HTU21D;54385;53.516;49.456;2023-11-21T04:18:05;20.01;31.06
67555;HTU21D;54385;53.516;49.456;2023-11-21T04:20:31;20.03;31.25
67555;HTU21D;54385;53.516;49.456;2023-11-21T04:22:58;20.06;31.45
67555;HTU21D;54385;53.516;49.456;2023-11-21T04:25:25;20.09;31.56
67555;HTU21D;54385;53.516;49.456;2023-11-21T04:27:51;20.11;31.64
67555;HTU21D;54385;53.516;49.456;2023-11-21T04:30:18;20.13;31.75
67555;HTU21D;54385;53.516;49.456;2023-11-21T04:32:44;20.16;31.83
67555;HTU21D;54385;53.516;49.456;2023-11-21T04:35:11;20.18;31.95
67555;HTU21D;54385;53.516;49.456;2023-11-21T04:37:38;20.20;31.99
67555;HTU21D;54385;53.516;49.456;2023-11-21T04:40:05;20.21;32.02
67555;HTU21D;54385;53.516;49.456;2023-11-21T04:42:35;20.24;32.11
67555;HTU21D;54385;53.516;49.456;2023-11-21T04:45:04;20.26;32.21
67555;HTU21D;54385;53.516;49.456;2023-11-21T04:47:35;20.27;32.22
67555;HTU21D;54385;53.516;49.456;2023-11-21T04:50:06;20.29;32.25
67555;HTU21D;54385;53.516;49.456;2023-11-21T04:53:02;20.31;32.26
67555;HTU21D;54385;53.516;49.456;2023-11-21T04:55:29;20.32;32.28
67555;HTU21D;54385;53.516;49.456;2023-11-21T04:57:57;20.35;32.25
67555;HTU21D;54385;53.516;49.456;2023-11-21T05:01:17;20.39;32.48
67555;HTU21D;54385;53.516;49.456;2023-11-21T05:03:45;20.41;32.22
67555;HTU21D;54385;53.516;49.456;2023-11-21T05:06:23;20.43;32.44
67555;HTU21D;54385;53.516;49.456;2023-11-21T05:08:54;20.46;32.22
67555;HTU21D;54385;53.516;49.456;2023-11-21T05:11:43;20.48;32.21
67555;HTU21D;54385;53.516;49.456;2023-11-21T05:14:15;20.50;32.12
67555;HTU21D;54385;53.516;49.456;2023-11-21T05:16:42;20.54;32.07
67555;HTU21D;54385;53.516;49.456;2023-11-21T05:19:11;20.55;32.00
67555;HTU21D;54385;53.516;49.456;2023-11-21T05:21:39;20.56;32.06
67555;HTU21D;54385;53.516;49.456;2023-11-21T05:24:07;20.58;32.24
67555;HTU21D;54385;53.516;49.456;2023-11-21T05:26:34;20.62;32.28
67555;HTU21D;54385;53.516;49.456;2023-11-21T05:29:11;20.64;32.22
67555;HTU21D;54385;53.516;49.456;2023-11-21T05:31:50;20.65;32.32
67555;HTU21D;54385;53.516;49.456;2023-11-21T05:34:21;20.66;32.09
67555;HTU21D;54385;53.516;49.456;2023-11-21T05:36:50;20.68;32.09
67555;HTU21D;54385;53.516;49.456;2023-11-21T05:39:17;20.71;32.21
67555;HTU21D;54385;53.516;49.456;2023-11-21T05:41:44;20.74;32.32
67555;HTU21D;54385;53.516;49.456;2023-11-21T05:44:12;20.77;32.39
67555;HTU21D;54385;53.516;49.456;2023-11-21T05:46:40;20.81;32.45
67555;HTU21D;54385;53.516;49.456;2023-11-21T05:49:10;20.87;32.54
67555;HTU21D;54385;53.516;49.456;2023-11-21T05:51:48;20.91;32.69
67555;HTU21D;54385;53.516;49.456;2023-11-21T05:54:23;20.95;32.76
67555;HTU21D;54385;53.516;49.456;2023-11-21T05:56:50;21.00;32.76
67555;HTU21D;54385;53.516;49.456;2023-11-21T05:59:20;21.01;32.75
67555;HTU21D;54385;53.516;49.456;2023-11-21T06:01:47;21.03;32.92
67555;HTU21D;54385;53.516;49.456;2023-11-21T06:04:16;21.03;33.22
67555;HTU21D;54385;53.516;49.456;2023-11-21T06:06:47;21.04;33.26
67555;HTU21D;54385;53.516;49.456;2023-11-21T06:09:16;21.06;33.19
67555;HTU21D;54385;53.516;49.456;2023-11-21T06:11:43;21.08;33.26
67555;HTU21D;54385;53.516;49.456;2023-11-21T06:14:09;21.09;33.38
67555;HTU21D;54385;53.516;49.456;2023-11-21T06:16:37;21.10;33.46
67555;HTU21D;54385;53.516;49.456;2023-11-21T06:19:03;21.15;33.57
67555;HTU21D;54385;53.516;49.456;2023-11-21T06:21:31;21.17;33.67
67555;HTU21D;54385;53.516;49.456;2023-11-21T06:24:04;21.20;33.71
67555;HTU21D;54385;53.516;49.456;2023-11-21T06:26:34;21.20;33.73
67555;HTU21D;54385;53.516;49.456;2023-11-21T06:29:06;21.23;33.78
67555;HTU21D;54385;53.516;49.456;2023-11-21T06:31:33;21.23;33.75
67555;HTU21D;54385;53.516;49.456;2023-11-21T06:34:03;21.24;33.77
67555;HTU21D;54385;53.516;49.456;2023-11-21T06:36:32;21.27;33.76
67555;HTU21D;54385;53.516;49.456;2023-11-21T06:39:04;21.28;33.86
67555;HTU21D;54385;53.516;49.456;2023-11-21T06:42:20;21.31;33.96
67555;HTU21D;54385;53.516;49.456;2023-11-21T06:45:33;21.31;33.71
67555;HTU21D;54385;53.516;49.456;2023-11-21T06:48:03;21.33;33.67
67555;HTU21D;54385;53.516;49.456;2023-11-21T06:50:35;21.33;33.64
67555;HTU21D;54385;53.516;49.456;2023-11-21T06:53:04;21.35;33.57
67555;HTU21D;54385;53.516;49.456;2023-11-21T06:55:49;21.34;33.69
67555;HTU21D;54385;53.516;49.456;2023-11-21T06:58:29;21.35;33.61
67555;HTU21D;54385;53.516;49.456;2023-11-21T07:01:08;21.34;33.72
67555;HTU21D;54385;53.516;49.456;2023-11-21T07:03:40;21.37;33.47
67555;HTU21D;54385;53.516;49.456;2023-11-21T07:06:44;21.42;33.38
67555;HTU21D;54385;53.516;49.456;2023-11-21T07:09:13;21.45;33.27
67555;HTU21D;54385;53.516;49.456;2023-11-21T07:11:43;21.48;33.22
67555;HTU21D;54385;53.516;49.456;2023-11-21T07:14:13;21.53;33.44
67555;HTU21D;54385;53.516;49.456;2023-11-21T07:16:40;21.61;33.78
67555;HTU21D;54385;53.516;49.456;2023-11-21T07:19:13;21.67;33.78
67555;HTU21D;54385;53.516;49.456;2023-11-21T07:21:46;21.69;33.89
67555;HTU21D;54385;53.516;49.456;2023-11-21T07:24:17;21.74;33.92
67555;HTU21D;54385;53.516;49.456;2023-11-21T07:26:47;21.78;33.99
67555;HTU21D;54385;53.516;49.456;2023-11-21T07:29:19;21.80;33.79
67555;HTU21D;54385;53.516;49.456;2023-11-21T07:31:57;21.84;33.83
67555;HTU21D;54385;53.516;49.456;2023-11-21T07:34:24;21.88;33.63
67555;HTU21D;54385;53.516;49.456;2023-11-21T07:36:52;21.92;33.49
67555;HTU21D;54385;53.516;49.456;2023-11-21T07:39:32;21.94;33.39
67555;HTU21D;54385;53.516;49.456;2023-11-21T07:42:03;21.99;33.22
67555;HTU21D;54385;53.516;49.456;2023-11-21T07:48:30;22.16;32.68
67555;HTU21D;54385;53.516;49.456;2023-11-21T07:51:01;22.21;32.48
67555;HTU21D;54385;53.516;49.456;2023-11-21T07:53:45;22.20;32.40
67555;HTU21D;54385;53.516;49.456;2023-11-21T07:56:22;22.12;32.35
67555;HTU21D;54385;53.516;49.456;2023-11-21T07:59:17;22.08;32.30
67555;HTU21D;54385;53.516;49.456;2023-11-21T08:01:50;22.01;32.37
67555;HTU21D;54385;53.516;49.456;2023-11-21T08:04:34;21.97;32.25
67555;HTU21D;54385;53.516;49.456;2023-11-21T08:07:05;21.92;32.31
67555;HTU21D;54385;53.516;49.456;2023-11-21T08:09:35;21.91;32.44
67555;HTU21D;54385;53.516;49.456;2023-11-21T08:12:04;21.93;32.54
67555;HTU21D;54385;53.516;49.456;2023-11-21T08:14:31;21.93;32.68
67555;HTU21D;54385;53.516;49.456;2023-11-21T08:24:20;21.88;33.12
67555;HTU21D;54385;53.516;49.456;2023-11-21T08:26:47;21.84;33.16
67555;HTU21D;54385;53.516;49.456;2023-11-21T08:29:17;21.83;33.05
67555;HTU21D;54385;53.516;49.456;2023-11-21T08:32:03;21.87;32.81
67555;HTU21D;54385;53.516;49.456;2023-11-21T08:34:39;21.93;32.50
67555;HTU21D;54385;53.516;49.456;2023-11-21T08:37:09;22.01;32.26
67555;HTU21D;54385;53.516;49.456;2023-11-21T08:39:37;22.03;32.11
67555;HTU21D;54385;53.516;49.456;2023-11-21T08:42:06;22.06;31.93
67555;HTU21D;54385;53.516;49.456;2023-11-21T08:44:37;22.09;31.80
67555;HTU21D;54385;53.516;49.456;2023-11-21T08:47:08;22.14;31.64
67555;HTU21D;54385;53.516;49.456;2023-11-21T08:49:49;22.24;31.44
67555;HTU21D;54385;53.516;49.456;2023-11-21T08:52:49;22.34;31.25
67555;HTU21D;54385;53.516;49.456;2023-11-21T08:55:21;22.37;31.08
67555;HTU21D;54385;53.516;49.456;2023-11-21T08:57:51;22.40;30.97
67555;HTU21D;54385;53.516;49.456;2023-11-21T09:00:21;22.41;30.93
67555;HTU21D;54385;53.516;49.456;2023-11-21T09:02:49;22.40;30.90
67555;HTU21D;54385;53.516;49.456;2023-11-21T09:05:16;22.40;30.93
67555;HTU21D;54385;53.516;49.456;2023-11-21T09:07:49;22.35;31.01
67555;HTU21D;54385;53.516;49.456;2023-11-21T09:10:17;22.34;31.04
67555;HTU21D;54385;53.516;49.456;2023-11-21T09:12:48;22.34;30.99
67555;HTU21D;54385;53.516;49.456;2023-11-21T09:15:51;22.32;30.81
67555;HTU21D;54385;53.516;49.456;2023-11-21T09:18:26;22.27;31.00
67555;HTU21D;54385;53.516;49.456;2023-11-21T09:21:02;22.23;31.06
67555;HTU21D;54385;53.516;49.456;2023-11-21T09:23:31;22.18;31.19
67555;HTU21D;54385;53.516;49.456;2023-11-21T09:25:58;22.16;31.31
67555;HTU21D;54385;53.516;49.456;2023-11-21T09:28:27;22.12;31.38
67555;HTU21D;54385;53.516;49.456;2023-11-21T09:30:57;22.11;31.45
67555;HTU21D;54385;53.516;49.456;2023-11-21T09:33:28;22.09;31.50
67555;HTU21D;54385;53.516;49.456;2023-11-21T09:36:26;22.09;31.45
67555;HTU21D;54385;53.516;49.456;2023-11-21T09:38:56;22.11;31.35
67555;HTU21D;54385;53.516;49.456;2023-11-21T09:41:57;22.14;31.19
67555;HTU21D;54385;53.516;49.456;2023-11-21T09:48:16;22.19;31.02
67555;HTU21D;54385;53.516;49.456;2023-11-21T09:51:00;22.16;30.96
67555;HTU21D;54385;53.516;49.456;2023-11-21T09:53:34;22.13;30.99
67555;HTU21D;54385;53.516;49.456;2023-11-21T09:56:34;22.08;31.03
67555;HTU21D;54385;53.516;49.456;2023-11-21T09:59:03;22.05;31.07
67555;HTU21D;54385;53.516;49.456;2023-11-21T10:01:47;22.01;31.09
67555;HTU21D;54385;53.516;49.456;2023-11-21T10:04:20;21.94;31.20
67555;HTU21D;54385;53.516;49.456;2023-11-21T10:06:53;21.89;31.25
67555;HTU21D;54385;53.516;49.456;2023-11-21T10:09:23;21.84;31.32
67555;HTU21D;54385;53.516;49.456;2023-11-21T10:12:06;21.78;31.41
67555;HTU21D;54385;53.516;49.456;2023-11-21T10:14:37;21.77;31.44
67555;HTU21D;54385;53.516;49.456;2023-11-21T10:17:08;21.72;31.48
67555;HTU21D;54385;53.516;49.456;2023-11-21T10:19:39;21.72;31.49
67555;HTU21D;54385;53.516;49.456;2023-11-21T10:22:06;21.69;31.48
67555;HTU21D;54385;53.516;49.456;2023-11-21T10:24:36;21.69;31.52
67555;HTU21D;54385;53.516;49.456;2023-11-21T10:27:07;21.67;31.51
67555;HTU21D;54385;53.516;49.456;2023-11-21T10:29:36;21.65;31.54
67555;HTU21D;54385;53.516;49.456;2023-11-21T10:32:05;21.62;31.56
67555;HTU21D;54385;53.516;49.456;2023-11-21T10:34:33;21.60;31.92
67555;HTU21D;54385;53.516;49.456;2023-11-21T10:37:12;21.55;33.91
67555;HTU21D;54385;53.516;49.456;2023-11-21T10:39:39;21.53;34.34
67555;HTU21D;54385;53.516;49.456;2023-11-21T10:42:08;21.53;35.69
67555;HTU21D;54385;53.516;49.456;2023-11-21T10:44:49;21.51;35.69
67555;HTU21D;54385;53.516;49.456;2023-11-21T10:47:22;21.49;36.29
67555;HTU21D;54385;53.516;49.456;2023-11-21T10:49:57;21.44;35.94
67555;HTU21D;54385;53.516;49.456;2023-11-21T10:52:27;21.40;35.98
67555;HTU21D;54385;53.516;49.456;2023-11-21T10:54:57;21.36;35.97
67555;HTU21D;54385;53.516;49.456;2023-11-21T10:57:26;21.32;35.99
67555;HTU21D;54385;53.516;49.456;2023-11-21T11:03:20;21.24;35.82
67555;HTU21D;54385;53.516;49.456;2023-11-21T11:05:53;21.20;35.83
67555;HTU21D;54385;53.516;49.456;2023-11-21T11:08:31;21.16;35.79
67555;HTU21D;54385;53.516;49.456;2023-11-21T11:11:01;21.14;35.75
67555;HTU21D;54385;53.516;49.456;2023-11-21T11:13:28;21.10;35.72
67555;HTU21D;54385;53.516;49.456;2023-11-21T11:15:59;21.08;35.73
67555;HTU21D;54385;53.516;49.456;2023-11-21T11:18:33;21.06;35.67
67555;HTU21D;54385;53.516;49.456;2023-11-21T11:24:31;21.00;35.67
67555;HTU21D;54385;53.516;49.456;2023-11-21T11:27:40;20.98;35.59
67555;HTU21D;54385;53.516;49.456;2023-11-21T11:30:36;20.94;35.53
67555;HTU21D;54385;53.516;49.456;2023-11-21T11:36:22;20.91;35.44
67555;HTU21D;54385;53.516;49.456;2023-11-21T11:38:51;20.87;35.31
67555;HTU21D;54385;53.516;49.456;2023-11-21T11:41:26;20.87;35.34
67555;HTU21D;54385;53.516;49.456;2023-11-21T11:43:54;20.84;35.30
67555;HTU21D;54385;53.516;49.456;2023-11-21T11:46:45;20.80;35.34
67555;HTU21D;54385;53.516;49.456;2023-11-21T11:49:27;20.77;35.30
67555;HTU21D;54385;53.516;49.456;2023-11-21T11:54:49;20.74;35.17
67555;HTU21D;54385;53.516;49.456;2023-11-21T11:57:24;20.72;35.14
67555;HTU21D;54385;53.516;49.456;2023-11-21T12:02:58;20.70;35.17
67555;HTU21D;54385;53.516;49.456;2023-11-21T12:05:36;20.65;35.09
67555;HTU21D;54385;53.516;49.456;2023-11-21T12:08:07;20.65;35.08
67555;HTU21D;54385;53.516;49.456;2023-11-21T12:10:38;20.63;35.08
67555;HTU21D;54385;53.516;49.456;2023-11-21T12:13:15;20.62;35.05
67555;HTU21D;54385;53.516;49.456;2023-11-21T12:15:53;20.60;35.02
67555;HTU21D;54385;53.516;49.456;2023-11-21T12:18:41;20.59;35.03
67555;HTU21D;54385;53.516;49.456;2023-11-21T12:21:14;20.57;34.97
67555;HTU21D;54385;53.516;49.456;2023-11-21T12:23:49;20.56;34.98
67555;HTU21D;54385;53.516;49.456;2023-11-21T12:26:17;20.56;34.92
67555;HTU21D;54385;53.516;49.456;2023-11-21T12:28:52;20.54;34.94
67555;HTU21D;54385;53.516;49.456;2023-11-21T12:31:25;20.53;34.88
67555;HTU21D;54385;53.516;49.456;2023-11-21T12:33:57;20.51;34.86
67555;HTU21D;54385;53.516;49.456;2023-11-21T12:36:24;20.49;34.84
67555;HTU21D;54385;53.516;49.456;2023-11-21T12:38:54;20.48;34.84
67555;HTU21D;54385;53.516;49.456;2023-11-21T12:41:24;20.46;34.83
67555;HTU21D;54385;53.516;49.456;2023-11-21T12:43:50;20.45;34.83
67555;HTU21D;54385;53.516;49.456;2023-11-21T12:46:17;20.44;34.81
67555;HTU21D;54385;53.516;49.456;2023-11-21T12:48:45;20.43;34.79
67555;HTU21D;54385;53.516;49.456;2023-11-21T12:51:12;20.43;34.73
67555;HTU21D;54385;53.516;49.456;2023-11-21T12:53:47;20.41;34.71
67555;HTU21D;54385;53.516;49.456;2023-11-21T12:56:17;20.41;34.70
67555;HTU21D;54385;53.516;49.456;2023-11-21T12:58:46;20.42;34.68
67555;HTU21D;54385;53.516;49.456;2023-11-21T13:01:37;20.40;34.68
67555;HTU21D;54385;53.516;49.456;2023-11-21T13:04:07;20.39;34.63
67555;HTU21D;54385;53.516;49.456;2023-11-21T13:06:36;20.36;34.63
67555;HTU21D;54385;53.516;49.456;2023-11-21T13:09:10;20.36;34.60
67555;HTU21D;54385;53.516;49.456;2023-11-21T13:11:49;20.34;34.58
67555;HTU21D;54385;53.516;49.456;2023-11-21T13:14:30;20.35;34.57
67555;HTU21D;54385;53.516;49.456;2023-11-21T13:16:58;20.33;34.53
67555;HTU21D;54385;53.516;49.456;2023-11-21T13:19:28;20.33;34.50
67555;HTU21D;54385;53.516;49.456;2023-11-21T13:21:57;20.34;34.45
67555;HTU21D;54385;53.516;49.456;2023-11-21T13:24:24;20.34;34.44
67555;HTU21D;54385;53.516;49.456;2023-11-21T13:26:52;20.33;34.42
67555;HTU21D;54385;53.516;49.456;2023-11-21T13:29:19;20.31;34.41
67555;HTU21D;54385;53.516;49.456;2023-11-21T13:31:47;20.31;34.39
67555;HTU21D;54385;53.516;49.456;2023-11-21T13:34:22;20.31;34.36
67555;HTU21D;54385;53.516;49.456;2023-11-21T13:36:51;20.30;34.35
67555;HTU21D;54385;53.516;49.456;2023-11-21T13:39:24;20.30;34.34
67555;HTU21D;54385;53.516;49.456;2023-11-21T13:41:57;20.29;34.31
67555;HTU21D;54385;53.516;49.456;2023-11-21T13:44:26;20.28;34.29
67555;HTU21D;54385;53.516;49.456;2023-11-21T13:47:04;20.28;34.28
67555;HTU21D;54385;53.516;49.456;2023-11-21T13:49:35;20.27;34.28
67555;HTU21D;54385;53.516;49.456;2023-11-21T13:52:07;20.26;34.25
67555;HTU21D;54385;53.516;49.456;2023-11-21T13:54:34;20.26;34.24
67555;HTU21D;54385;53.516;49.456;2023-11-21T13:57:11;20.26;34.22
67555;HTU21D;54385;53.516;49.456;2023-11-21T13:59:41;20.25;34.19
67555;HTU21D;54385;53.516;49.456;2023-11-21T14:02:10;20.24;34.18
67555;HTU21D;54385;53.516;49.456;2023-11-21T14:04:54;20.24;34.18
67555;HTU21D;54385;53.516;49.456;2023-11-21T14:07:36;20.21;34.12
67555;HTU21D;54385;53.516;49.456;2023-11-21T14:10:16;20.20;34.16
67555;HTU21D;54385;53.516;49.456;2023-11-21T14:12:47;20.19;34.16
67555;HTU21D;54385;53.516;49.456;2023-11-21T14:15:16;20.18;34.16
67555;HTU21D;54385;53.516;49.456;2023-11-21T14:17:45;20.18;34.13
67555;HTU21D;54385;53.516;49.456;2023-11-21T14:20:11;20.18;34.12
67555;HTU21D;54385;53.516;49.456;2023-11-21T14:22:42;20.17;34.11
67555;HTU21D;54385;53.516;49.456;2023-11-21T14:25:09;20.17;34.08
67555;HTU21D;54385;53.516;49.456;2023-11-21T14:27:40;20.16;34.08
67555;HTU21D;54385;53.516;49.456;2023-11-21T14:33:38;20.16;34.05
67555;HTU21D;54385;53.516;49.456;2023-11-21T14:36:09;20.14;34.05
67555;HTU21D;54385;53.516;49.456;2023-11-21T14:38:38;20.13;34.05
67555;HTU21D;54385;53.516;49.456;2023-11-21T14:41:09;20.12;34.06
67555;HTU21D;54385;53.516;49.456;2023-11-21T14:43:37;20.11;34.06
67555;HTU21D;54385;53.516;49.456;2023-11-21T14:46:05;20.11;34.05
67555;HTU21D;54385;53.516;49.456;2023-11-21T14:48:37;20.09;34.00
67555;HTU21D;54385;53.516;49.456;2023-11-21T14:51:13;20.10;34.03
67555;HTU21D;54385;53.516;49.456;2023-11-21T14:53:54;20.09;33.99
67555;HTU21D;54385;53.516;49.456;2023-11-21T14:56:23;20.07;34.00
67555;HTU21D;54385;53.516;49.456;2023-11-21T14:58:58;20.09;33.96
67555;HTU21D;54385;53.516;49.456;2023-11-21T15:02:07;20.09;33.98
67555;HTU21D;54385;53.516;49.456;2023-11-21T15:04:53;20.09;33.93
67555;HTU21D;54385;53.516;49.456;2023-11-21T15:07:47;20.06;33.92
67555;HTU21D;54385;53.516;49.456;2023-11-21T15:10:45;20.07;33.92
67555;HTU21D;54385;53.516;49.456;2023-11-21T15:13:14;20.06;33.91
67555;HTU21D;54385;53.516;49.456;2023-11-21T15:15:46;20.05;33.91
67555;HTU21D;54385;53.516;49.456;2023-11-21T15:18:21;20.05;33.91
67555;HTU21D;54385;53.516;49.456;2023-11-21T15:20:54;20.04;33.89
67555;HTU21D;54385;53.516;49.456;2023-11-21T15:23:26;20.04;33.86
67555;HTU21D;54385;53.516;49.456;2023-11-21T15:26:20;20.03;33.86
67555;HTU21D;54385;53.516;49.456;2023-11-21T15:28:48;20.03;33.86
67555;HTU21D;54385;53.516;49.456;2023-11-21T15:31:14;20.03;33.85
67555;HTU21D;54385;53.516;49.456;2023-11-21T15:33:51;20.01;33.87
67555;HTU21D;54385;53.516;49.456;2023-11-21T15:36:19;20.02;33.85
67555;HTU21D;54385;53.516;49.456;2023-11-21T15:38:46;20.01;33.83
67555;HTU21D;54385;53.516;49.456;2023-11-21T15:41:13;20.00;33.82
67555;HTU21D;54385;53.516;49.456;2023-11-21T15:43:39;20.01;33.79
67555;HTU21D;54385;53.516;49.456;2023-11-21T15:46:06;20.02;33.71
67555;HTU21D;54385;53.516;49.456;2023-11-21T15:48:35;20.02;33.76
67555;HTU21D;54385;53.516;49.456;2023-11-21T15:51:06;20.00;33.77
67555;HTU21D;54385;53.516;49.456;2023-11-21T15:53:36;19.98;33.76
67555;HTU21D;54385;53.516;49.456;2023-11-21T15:56:08;19.99;33.79
67555;HTU21D;54385;53.516;49.456;2023-11-21T15:58:47;19.97;33.72
67555;HTU21D;54385;53.516;49.456;2023-11-21T16:01:20;19.98;33.75
67555;HTU21D;54385;53.516;49.456;2023-11-21T16:03:50;19.97;33.76
67555;HTU21D;54385;53.516;49.456;2023-11-21T16:06:17;19.96;33.73